sensor_id;sensor_type;location;lat;lon;timestamp;P1;durP1;ratioP1;P2;durP2;ratioP2
35042;SDS011;21230;51.170;17.024;2023-04-01T00:04:17;11.25;;;4.47;;
35042;SDS011;21230;51.170;17.024;2023-04-01T00:06:48;5.55;;;4.72;;
35042;SDS011;21230;51.170;17.024;2023-04-01T00:09:27;12.98;;;4.60;;
35042;SDS011;21230;51.170;17.024;2023-04-01T00:11:52;12.45;;;7.85;;
35042;SDS011;21230;51.170;17.024;2023-04-01T00:14:21;18.13;;;8.32;;
35042;SDS011;21230;51.170;17.024;2023-04-01T00:17:12;12.15;;;6.13;;
35042;SDS011;21230;51.170;17.024;2023-04-01T00:19:40;23.63;;;10.63;;
35042;SDS011;21230;51.170;17.024;2023-04-01T00:22:10;17.52;;;9.10;;
35042;SDS011;21230;51.170;17.024;2023-04-01T00:24:42;12.85;;;8.13;;
35042;SDS011;21230;51.170;17.024;2023-04-01T00:29:58;18.42;;;8.05;;
35042;SDS011;21230;51.170;17.024;2023-04-01T00:32:25;15.55;;;8.70;;
35042;SDS011;21230;51.170;17.024;2023-04-01T00:34:55;14.27;;;8.25;;
35042;SDS011;21230;51.170;17.024;2023-04-01T00:37:25;15.90;;;7.72;;
35042;SDS011;21230;51.170;17.024;2023-04-01T00:39:56;14.25;;;9.85;;
35042;SDS011;21230;51.170;17.024;2023-04-01T00:42:44;13.48;;;8.93;;
35042;SDS011;21230;51.170;17.024;2023-04-01T00:48:04;14.65;;;8.25;;
35042;SDS011;21230;51.170;17.024;2023-04-01T00:50:56;17.00;;;7.60;;
35042;SDS011;21230;51.170;17.024;2023-04-01T00:53:31;14.82;;;8.45;;
35042;SDS011;21230;51.170;17.024;2023-04-01T00:56:17;13.10;;;6.82;;
35042;SDS011;21230;51.170;17.024;2023-04-01T00:59:13;12.55;;;8.27;;
35042;SDS011;21230;51.170;17.024;2023-04-01T01:02:25;13.68;;;7.22;;
35042;SDS011;21230;51.170;17.024;2023-04-01T01:05:01;14.85;;;9.52;;
35042;SDS011;21230;51.170;17.024;2023-04-01T01:10:33;21.95;;;9.30;;
35042;SDS011;21230;51.170;17.024;2023-04-01T01:13:07;10.93;;;9.27;;
35042;SDS011;21230;51.170;17.024;2023-04-01T01:15:46;17.52;;;11.18;;
35042;SDS011;21230;51.170;17.024;2023-04-01T01:18:38;16.35;;;10.68;;
35042;SDS011;21230;51.170;17.024;2023-04-01T01:29:35;24.33;;;12.80;;
35042;SDS011;21230;51.170;17.024;2023-04-01T01:35:19;30.05;;;13.45;;
35042;SDS011;21230;51.170;17.024;2023-04-01T01:38:14;30.85;;;16.75;;
35042;SDS011;21230;51.170;17.024;2023-04-01T01:41:13;25.85;;;17.50;;
35042;SDS011;21230;51.170;17.024;2023-04-01T01:43:47;29.17;;;17.85;;
35042;SDS011;21230;51.170;17.024;2023-04-01T01:46:17;30.08;;;18.17;;
35042;SDS011;21230;51.170;17.024;2023-04-01T01:48:46;31.55;;;20.13;;
35042;SDS011;21230;51.170;17.024;2023-04-01T01:51:15;35.78;;;19.70;;
35042;SDS011;21230;51.170;17.024;2023-04-01T01:53:42;30.30;;;21.38;;
35042;SDS011;21230;51.170;17.024;2023-04-01T01:56:11;30.60;;;20.60;;
35042;SDS011;21230;51.170;17.024;2023-04-01T01:58:47;23.07;;;16.37;;
35042;SDS011;21230;51.170;17.024;2023-04-01T02:01:20;22.08;;;13.13;;
35042;SDS011;21230;51.170;17.024;2023-04-01T02:03:52;48.05;;;27.90;;
35042;SDS011;21230;51.170;17.024;2023-04-01T02:06:20;22.08;;;13.98;;
35042;SDS011;21230;51.170;17.024;2023-04-01T02:08:56;19.92;;;11.75;;
35042;SDS011;21230;51.170;17.024;2023-04-01T02:11:34;16.50;;;12.10;;
35042;SDS011;21230;51.170;17.024;2023-04-01T02:14:15;20.95;;;11.30;;
35042;SDS011;21230;51.170;17.024;2023-04-01T02:19:33;18.48;;;11.73;;
35042;SDS011;21230;51.170;17.024;2023-04-01T02:22:16;18.65;;;14.18;;
35042;SDS011;21230;51.170;17.024;2023-04-01T02:24:52;21.65;;;13.70;;
35042;SDS011;21230;51.170;17.024;2023-04-01T02:27:38;24.95;;;14.52;;
35042;SDS011;21230;51.170;17.024;2023-04-01T02:30:42;20.23;;;13.35;;
35042;SDS011;21230;51.170;17.024;2023-04-01T02:33:13;21.80;;;12.50;;
35042;SDS011;21230;51.170;17.024;2023-04-01T02:35:40;16.60;;;11.73;;
35042;SDS011;21230;51.170;17.024;2023-04-01T02:38:10;14.05;;;10.38;;
35042;SDS011;21230;51.170;17.024;2023-04-01T02:40:57;15.95;;;10.50;;
35042;SDS011;21230;51.170;17.024;2023-04-01T02:43:50;19.57;;;10.57;;
35042;SDS011;21230;51.170;17.024;2023-04-01T02:46:44;17.50;;;8.00;;
35042;SDS011;21230;51.170;17.024;2023-04-01T02:49:23;11.52;;;8.85;;
35042;SDS011;21230;51.170;17.024;2023-04-01T02:52:15;30.67;;;11.02;;
35042;SDS011;21230;51.170;17.024;2023-04-01T02:54:44;18.08;;;9.38;;
35042;SDS011;21230;51.170;17.024;2023-04-01T02:57:10;18.10;;;7.55;;
35042;SDS011;21230;51.170;17.024;2023-04-01T02:59:36;10.95;;;7.55;;
35042;SDS011;21230;51.170;17.024;2023-04-01T03:02:03;10.32;;;5.40;;
35042;SDS011;21230;51.170;17.024;2023-04-01T03:04:35;8.73;;;5.45;;
35042;SDS011;21230;51.170;17.024;2023-04-01T03:07:07;10.23;;;5.68;;
35042;SDS011;21230;51.170;17.024;2023-04-01T03:09:43;14.65;;;6.63;;
35042;SDS011;21230;51.170;17.024;2023-04-01T03:12:15;11.40;;;6.00;;
35042;SDS011;21230;51.170;17.024;2023-04-01T03:15:03;12.35;;;5.95;;
35042;SDS011;21230;51.170;17.024;2023-04-01T03:17:38;9.77;;;5.43;;
35042;SDS011;21230;51.170;17.024;2023-04-01T03:22:54;10.25;;;5.95;;
35042;SDS011;21230;51.170;17.024;2023-04-01T03:25:35;12.55;;;5.90;;
35042;SDS011;21230;51.170;17.024;2023-04-01T03:28:01;10.73;;;5.65;;
35042;SDS011;21230;51.170;17.024;2023-04-01T03:30:29;11.20;;;5.67;;
35042;SDS011;21230;51.170;17.024;2023-04-01T03:33:01;12.18;;;6.40;;
35042;SDS011;21230;51.170;17.024;2023-04-01T03:35:38;13.13;;;5.22;;
35042;SDS011;21230;51.170;17.024;2023-04-01T03:38:11;10.50;;;4.93;;
35042;SDS011;21230;51.170;17.024;2023-04-01T03:44:14;8.60;;;5.00;;
35042;SDS011;21230;51.170;17.024;2023-04-01T03:47:07;10.10;;;5.10;;
35042;SDS011;21230;51.170;17.024;2023-04-01T03:49:35;7.90;;;4.85;;
35042;SDS011;21230;51.170;17.024;2023-04-01T03:52:07;11.93;;;6.40;;
35042;SDS011;21230;51.170;17.024;2023-04-01T03:54:43;11.77;;;6.38;;
35042;SDS011;21230;51.170;17.024;2023-04-01T03:57:22;10.60;;;8.30;;
35042;SDS011;21230;51.170;17.024;2023-04-01T03:59:55;14.60;;;7.03;;
35042;SDS011;21230;51.170;17.024;2023-04-01T04:02:49;8.13;;;5.65;;
35042;SDS011;21230;51.170;17.024;2023-04-01T04:05:16;10.15;;;6.68;;
35042;SDS011;21230;51.170;17.024;2023-04-01T04:07:52;13.18;;;7.75;;
35042;SDS011;21230;51.170;17.024;2023-04-01T04:10:23;10.07;;;6.18;;
35042;SDS011;21230;51.170;17.024;2023-04-01T04:12:54;11.13;;;5.72;;
35042;SDS011;21230;51.170;17.024;2023-04-01T04:15:41;11.05;;;7.45;;
35042;SDS011;21230;51.170;17.024;2023-04-01T04:18:07;10.23;;;5.78;;
35042;SDS011;21230;51.170;17.024;2023-04-01T04:20:33;13.68;;;7.05;;
35042;SDS011;21230;51.170;17.024;2023-04-01T04:23:06;9.32;;;6.03;;
35042;SDS011;21230;51.170;17.024;2023-04-01T04:25:32;11.23;;;6.18;;
35042;SDS011;21230;51.170;17.024;2023-04-01T04:27:59;11.40;;;7.05;;
35042;SDS011;21230;51.170;17.024;2023-04-01T04:30:24;12.00;;;6.32;;
35042;SDS011;21230;51.170;17.024;2023-04-01T04:32:55;12.32;;;7.57;;
35042;SDS011;21230;51.170;17.024;2023-04-01T04:35:26;10.82;;;7.22;;
35042;SDS011;21230;51.170;17.024;2023-04-01T04:37:52;9.20;;;5.45;;
35042;SDS011;21230;51.170;17.024;2023-04-01T04:40:21;9.23;;;4.70;;
35042;SDS011;21230;51.170;17.024;2023-04-01T04:42:49;9.43;;;4.50;;
35042;SDS011;21230;51.170;17.024;2023-04-01T04:45:18;5.80;;;3.85;;
35042;SDS011;21230;51.170;17.024;2023-04-01T04:47:45;9.77;;;5.50;;
35042;SDS011;21230;51.170;17.024;2023-04-01T04:50:11;7.38;;;4.28;;
35042;SDS011;21230;51.170;17.024;2023-04-01T04:52:38;14.15;;;5.65;;
35042;SDS011;21230;51.170;17.024;2023-04-01T04:55:04;8.38;;;5.18;;
35042;SDS011;21230;51.170;17.024;2023-04-01T04:57:34;10.35;;;4.65;;
35042;SDS011;21230;51.170;17.024;2023-04-01T05:00:00;9.23;;;8.10;;
35042;SDS011;21230;51.170;17.024;2023-04-01T05:02:43;7.50;;;5.78;;
35042;SDS011;21230;51.170;17.024;2023-04-01T05:05:15;10.18;;;4.47;;
35042;SDS011;21230;51.170;17.024;2023-04-01T05:07:42;9.38;;;6.78;;
35042;SDS011;21230;51.170;17.024;2023-04-01T05:10:08;9.02;;;6.15;;
